Kenny Billiot — WDG6408 — position and weather

sailwx.info

Track history (hours):
 
Tides and Currents Weather Stations Pressure Air Temp Water Temp Dewpoint Dewpoint Depression Visibility Wind Speed Wind Dir Waves Ship Positions

Kenny Billiot

Owner: Wood Resources LLC, Avondale, LA. More information available from US FCC via Universal Licensing System and Coast Guard Vessel Documentation Center.

Last reported at 2018-Feb-20 07:00 UTC. Time now 2018-Feb-20 07:28 UTC.
Position N 29°52' W 093°59'.

Length 21 m; draft 3 m.

Type: . MMSI: 367556670.

Date/timePositionNaut miles runAvg speedWind from/ knotsBaromVisibWave heightAir tempDewpointWater temp
2018-Feb-20 07:00N 29°52' W 093°59'0 0.0
2018-Feb-20 06:30N 29°52' W 093°59'0 0.0
2018-Feb-20 06:01N 29°52' W 093°59'0 0.0
2018-Feb-20 05:31N 29°52' W 093°59'0 0.0
2018-Feb-20 05:01N 29°52' W 093°59'0 0.0
2018-Feb-20 04:30N 29°52' W 093°59'0 0.1
2018-Feb-20 04:01N 29°52' W 093°60'0 0.0
2018-Feb-20 03:31N 29°52' W 093°60'0 0.0
2018-Feb-20 03:00N 29°52' W 093°60'0 0.0
2018-Feb-20 02:31N 29°52' W 093°60'0 0.1
2018-Feb-20 01:59N 29°52' W 093°59'1 1.8
2018-Feb-20 01:31N 29°51' W 093°59'1 1.9
2018-Feb-20 01:00N 29°50' W 093°59'1 2.5
2018-Feb-20 00:30N 29°51' W 093°59'1 1.2
2018-Feb-20 00:01N 29°52' W 093°59'1 2.8
2018-Feb-19 23:31N 29°50' W 093°59'1 1.4
2018-Feb-19 23:01N 29°50' W 093°59'1 1.4
2018-Feb-19 22:30N 29°49' W 093°59'2 4.1
2018-Feb-19 22:00N 29°51' W 093°57'3 6.1
2018-Feb-19 21:30N 29°53' W 093°55'3 6.3
2018-Feb-19 21:00N 29°56' W 093°53'3 5.9
2018-Feb-19 20:31N 29°58' W 093°51'2 4.6
2018-Feb-19 20:00N 29°59' W 093°49'3 5.0
2018-Feb-19 19:30N 30°00' W 093°46'3 4.9
2018-Feb-19 18:59N 30°02' W 093°44'2 4.3
2018-Feb-19 18:29N 30°03' W 093°42'1 2.5
2018-Feb-19 18:01N 30°04' W 093°41'2 4.4
2018-Feb-19 17:28N 30°04' W 093°38'2 4.8
2018-Feb-19 16:58N 30°04' W 093°35'2 4.6
2018-Feb-19 16:30N 30°04' W 093°33'2 4.4
2018-Feb-19 16:00N 30°04' W 093°30'2 4.6
2018-Feb-19 15:30N 30°04' W 093°28'2 4.1
2018-Feb-19 15:01N 30°04' W 093°25'2 4.1
2018-Feb-19 14:26N 30°04' W 093°23'2 4.3
2018-Feb-19 13:55N 30°04' W 093°20'1 3.5
2018-Feb-19 13:31N 30°06' W 093°20'1 2.3
2018-Feb-19 13:00N 30°07' W 093°20'2 3.1
2018-Feb-19 12:31N 30°08' W 093°20'0 0.0
2018-Feb-19 12:01N 30°08' W 093°20'0 0.0
2018-Feb-19 11:31N 30°08' W 093°20'0 0.0
2018-Feb-19 11:00N 30°08' W 093°20'0 0.0
2018-Feb-19 10:31N 30°08' W 093°20'0 0.0
2018-Feb-19 10:01N 30°08' W 093°20'0 0.0
2018-Feb-19 09:28N 30°08' W 093°20'0 0.0
2018-Feb-19 09:01N 30°08' W 093°20'0 0.0
2018-Feb-19 08:30N 30°08' W 093°20'0 0.0
2018-Feb-19 08:00N 30°08' W 093°20'0 0.0
2018-Feb-19 07:30N 30°08' W 093°20'0 0.1
2018-Feb-19 07:01N 30°08' W 093°20'0 0.0
2018-Feb-19 06:30N 30°08' W 093°20'0 0.0
2018-Feb-19 06:00N 30°08' W 093°20'0 0.0
2018-Feb-19 05:31N 30°08' W 093°20'0 0.0
2018-Feb-19 05:00N 30°08' W 093°20'0 0.0
2018-Feb-19 04:30N 30°08' W 093°20'0 0.0
2018-Feb-19 04:00N 30°08' W 093°20'0 0.1
2018-Feb-19 03:31N 30°08' W 093°20'0 0.1
2018-Feb-19 03:01N 30°08' W 093°20'0 0.0
2018-Feb-19 02:31N 30°08' W 093°20'0 0.1
2018-Feb-19 02:01N 30°08' W 093°20'0 0.0
2018-Feb-19 01:31N 30°08' W 093°20'1 2.3
2018-Feb-19 01:01N 30°10' W 093°19'2 3.6
2018-Feb-19 00:31N 30°11' W 093°18'0 0.3
2018-Feb-19 00:00N 30°11' W 093°19'0 0.0
2018-Feb-18 23:31N 30°11' W 093°19'0 0.0
2018-Feb-18 23:01N 30°11' W 093°19'0 0.0
2018-Feb-18 22:30N 30°11' W 093°19'0 0.0
2018-Feb-18 22:00N 30°11' W 093°19'0 0.0
2018-Feb-18 21:30N 30°11' W 093°19'0 0.0
2018-Feb-18 20:56N 30°11' W 093°19'0 0.0
2018-Feb-18 20:29N 30°11' W 093°19'0 0.0
2018-Feb-18 19:59N 30°11' W 093°19'0 0.0
2018-Feb-18 19:29N 30°11' W 093°19'0 0.0
2018-Feb-18 18:59N 30°11' W 093°19'0 0.0
2018-Feb-18 18:29N 30°11' W 093°19'0 0.0
2018-Feb-18 17:59N 30°11' W 093°19'0 0.0
2018-Feb-18 17:29N 30°11' W 093°19'0 0.0
2018-Feb-18 16:59N 30°11' W 093°19'0 0.0
2018-Feb-18 16:29N 30°11' W 093°19'0 0.0
2018-Feb-18 15:59N 30°11' W 093°19'0 0.0
2018-Feb-18 15:29N 30°11' W 093°19'0 0.0
2018-Feb-18 14:59N 30°11' W 093°19'0 0.0
2018-Feb-18 14:29N 30°11' W 093°19'0 0.0
2018-Feb-18 13:59N 30°11' W 093°19'0 0.0
2018-Feb-18 13:29N 30°11' W 093°19'0 0.0
2018-Feb-18 12:59N 30°11' W 093°19'0 0.0
2018-Feb-18 12:29N 30°11' W 093°19'0 0.0
2018-Feb-18 11:59N 30°11' W 093°19'0 0.0
2018-Feb-18 11:29N 30°11' W 093°19'0 0.0
2018-Feb-18 10:59N 30°11' W 093°19'0 0.0
2018-Feb-18 10:29N 30°11' W 093°19'0 0.0
2018-Feb-18 09:59N 30°11' W 093°19'0 0.0
2018-Feb-18 09:29N 30°11' W 093°19'0 0.0
2018-Feb-18 08:59N 30°11' W 093°19'0 0.0
2018-Feb-18 08:26N 30°11' W 093°19'0 0.0
2018-Feb-18 07:59N 30°11' W 093°19'0 0.0
2018-Feb-18 07:29N 30°11' W 093°19'0 0.0
2018-Feb-18 06:59N 30°11' W 093°19'0 0.0
2018-Feb-18 06:29N 30°11' W 093°19'0 0.0
2018-Feb-18 05:59N 30°11' W 093°19'0 0.0
2018-Feb-18 05:29N 30°11' W 093°19'0 0.0
2018-Feb-18 04:59N 30°11' W 093°19'0 0.0
2018-Feb-18 04:29N 30°11' W 093°19'0 0.0
2018-Feb-18 03:59N 30°11' W 093°19'0 0.0
2018-Feb-18 03:29N 30°11' W 093°19'0 0.0
2018-Feb-18 02:59N 30°11' W 093°19'0 0.0
2018-Feb-18 02:29N 30°11' W 093°19'0 0.0
2018-Feb-18 01:59N 30°11' W 093°19'0 0.0
2018-Feb-18 01:29N 30°11' W 093°19'0 0.0
2018-Feb-18 00:59N 30°11' W 093°19'0 0.0
2018-Feb-18 00:29N 30°11' W 093°19'0 0.0
2018-Feb-17 23:59N 30°11' W 093°19'0 0.0
2018-Feb-17 23:29N 30°11' W 093°19'0 0.0
2018-Feb-17 22:59N 30°11' W 093°19'0 0.0
2018-Feb-17 22:29N 30°11' W 093°19'0 0.1
2018-Feb-17 21:59N 30°11' W 093°19'0 0.0
2018-Feb-17 21:29N 30°11' W 093°19'1 2.4
2018-Feb-17 21:01N 30°10' W 093°19'2 4.9
2018-Feb-17 20:31N 30°08' W 093°20'2 4.5
2018-Feb-17 19:59N 30°05' W 093°20'2 3.8
2018-Feb-17 19:30N 30°04' W 093°21'1 1.7
2018-Feb-17 19:01N 30°04' W 093°22'0 0.1
2018-Feb-17 18:29N 30°04' W 093°22'0 0.0
2018-Feb-17 17:59N 30°04' W 093°22'0 0.0
2018-Feb-17 17:29N 30°04' W 093°22'0 0.0
2018-Feb-17 16:59N 30°04' W 093°22'0 0.0
2018-Feb-17 16:29N 30°04' W 093°22'0 0.0
2018-Feb-17 15:59N 30°04' W 093°22'0 0.0
2018-Feb-17 15:29N 30°04' W 093°22'0 0.0
2018-Feb-17 14:59N 30°04' W 093°22'0 0.0
2018-Feb-17 14:29N 30°04' W 093°22'0 0.0
2018-Feb-17 13:59N 30°04' W 093°22'0 0.0
2018-Feb-17 13:29N 30°04' W 093°22'0 0.0
2018-Feb-17 12:59N 30°04' W 093°22'0 0.0
2018-Feb-17 12:29N 30°04' W 093°22'0 0.0
2018-Feb-17 11:59N 30°04' W 093°22'0 0.0
2018-Feb-17 11:29N 30°04' W 093°22'0 0.0
2018-Feb-17 10:59N 30°04' W 093°22'0 0.0
2018-Feb-17 10:29N 30°04' W 093°22'0 0.0
2018-Feb-17 09:59N 30°04' W 093°22'0 0.0
2018-Feb-17 09:29N 30°04' W 093°22'0 0.0
2018-Feb-17 08:59N 30°04' W 093°22'0 0.0
2018-Feb-17 08:29N 30°04' W 093°22'0 0.0
2018-Feb-17 07:59N 30°04' W 093°22'0 0.0
2018-Feb-17 07:29N 30°04' W 093°22'0 0.0
2018-Feb-17 06:59N 30°04' W 093°22'0 0.0
2018-Feb-17 06:29N 30°04' W 093°22'0 0.0
2018-Feb-17 05:59N 30°04' W 093°22'0 0.0
2018-Feb-17 05:29N 30°04' W 093°22'0 0.0
2018-Feb-17 04:59N 30°04' W 093°22'0 0.0
2018-Feb-17 04:29N 30°04' W 093°22'0 0.0
2018-Feb-17 03:59N 30°04' W 093°22'0 0.0
2018-Feb-17 03:29N 30°04' W 093°22'0 0.0
2018-Feb-17 02:59N 30°04' W 093°22'0 0.0
2018-Feb-17 02:29N 30°04' W 093°22'0 0.0
2018-Feb-17 01:59N 30°04' W 093°22'0 0.0
2018-Feb-17 01:26N 30°04' W 093°22'0 0.0
2018-Feb-17 00:53N 30°04' W 093°22'0 0.0
2018-Feb-17 00:29N 30°04' W 093°22'0 0.0
2018-Feb-16 23:50N 30°04' W 093°22'0 0.0
2018-Feb-16 23:17N 30°04' W 093°22'0 0.0
2018-Feb-16 22:59N 30°04' W 093°22'0 0.0
2018-Feb-16 22:29N 30°04' W 093°22'0 0.0
2018-Feb-16 21:59N 30°04' W 093°22'0 0.0
2018-Feb-16 21:29N 30°04' W 093°22'0 0.3
2018-Feb-16 21:00N 30°04' W 093°22'0 0.2
2018-Feb-16 20:28N 30°04' W 093°22'0 0.6
2018-Feb-16 20:01N 30°04' W 093°21'0 0.8
2018-Feb-16 19:30N 30°04' W 093°22'0 0.2
2018-Feb-16 18:58N 30°04' W 093°22'0 0.0
2018-Feb-16 18:28N 30°04' W 093°22'0 0.0
2018-Feb-16 17:58N 30°04' W 093°22'0 0.0
2018-Feb-16 17:28N 30°04' W 093°22'0 0.0
2018-Feb-16 16:58N 30°04' W 093°22'0 0.0
2018-Feb-16 16:25N 30°04' W 093°22'0 0.0
2018-Feb-16 15:58N 30°04' W 093°22'0 0.0
2018-Feb-16 15:28N 30°04' W 093°22'0 0.0
2018-Feb-16 14:58N 30°04' W 093°22'0 0.7
2018-Feb-16 14:30N 30°04' W 093°21'0 0.7
2018-Feb-16 14:00N 30°04' W 093°22'0 0.1
2018-Feb-16 13:29N 30°04' W 093°22'0 0.0
2018-Feb-16 12:59N 30°04' W 093°22'0 0.0
2018-Feb-16 12:29N 30°04' W 093°22'0 0.0
2018-Feb-16 11:59N 30°04' W 093°22'0 0.0
2018-Feb-16 11:29N 30°04' W 093°22'0 0.0
2018-Feb-16 10:59N 30°04' W 093°22'0 0.0
2018-Feb-16 10:26N 30°04' W 093°22'0 0.0
2018-Feb-16 09:59N 30°04' W 093°22'0 0.0
2018-Feb-16 09:29N 30°04' W 093°22'0 0.0
2018-Feb-16 08:59N 30°04' W 093°22'0 0.0
2018-Feb-16 08:29N 30°04' W 093°22'0 0.0
2018-Feb-16 07:59N 30°04' W 093°22'0 0.0
2018-Feb-16 07:29N 30°04' W 093°22'0 0.0
2018-Feb-16 06:59N 30°04' W 093°22'0 0.0
2018-Feb-16 06:29N 30°04' W 093°22'0 0.0
2018-Feb-16 05:59N 30°04' W 093°22'0 0.0
2018-Feb-16 05:29N 30°04' W 093°22'0 0.0
2018-Feb-16 04:53N 30°04' W 093°22'0 0.0
2018-Feb-16 04:29N 30°04' W 093°22'0 0.0
2018-Feb-16 03:59N 30°04' W 093°22'0 0.0
2018-Feb-16 03:29N 30°04' W 093°22'0 0.0
2018-Feb-16 02:59N 30°04' W 093°22'0 0.0
2018-Feb-16 02:29N 30°04' W 093°22'0 0.0
2018-Feb-16 01:59N 30°04' W 093°22'0 0.0
2018-Feb-16 01:29N 30°04' W 093°22'0 0.0
2018-Feb-16 00:59N 30°04' W 093°22'0 0.0
2018-Feb-16 00:23N 30°04' W 093°22'0 0.0
2018-Feb-15 23:56N 30°04' W 093°22'0 0.0
2018-Feb-15 23:29N 30°04' W 093°22'0 0.0
2018-Feb-15 22:56N 30°04' W 093°22'0 0.0
2018-Feb-15 22:29N 30°04' W 093°22'0 0.0
2018-Feb-15 21:59N 30°04' W 093°22'0 0.0
2018-Feb-15 21:29N 30°04' W 093°22'0 0.0
2018-Feb-15 20:59N 30°04' W 093°22'0 0.0
2018-Feb-15 20:30N 30°04' W 093°22'0 0.9
2018-Feb-15 20:00N 30°04' W 093°21'0 0.0
2018-Feb-15 19:30N 30°04' W 093°21'0 0.0
2018-Feb-15 19:00N 30°04' W 093°21'0 0.0
2018-Feb-15 18:30N 30°04' W 093°21'0 0.0
2018-Feb-15 18:00N 30°04' W 093°21'0 0.0
2018-Feb-15 17:30N 30°04' W 093°21'0 0.8
2018-Feb-15 16:58N 30°04' W 093°22'0 0.0
2018-Feb-15 16:28N 30°04' W 093°22'0 0.0
2018-Feb-15 15:58N 30°04' W 093°22'0 0.0
2018-Feb-15 15:28N 30°04' W 093°22'0 0.0
2018-Feb-15 14:58N 30°04' W 093°22'0 0.0
2018-Feb-15 14:28N 30°04' W 093°22'0 0.0
2018-Feb-15 13:58N 30°04' W 093°22'0 0.0
2018-Feb-15 13:28N 30°04' W 093°22'0 0.0
2018-Feb-15 12:58N 30°04' W 093°22'0 0.0
2018-Feb-15 12:28N 30°04' W 093°22'0 0.0
2018-Feb-15 11:58N 30°04' W 093°22'0 0.0
2018-Feb-15 11:28N 30°04' W 093°22'0 0.0
2018-Feb-15 10:58N 30°04' W 093°22'0 0.0
2018-Feb-15 10:28N 30°04' W 093°22'0 0.0
2018-Feb-15 09:58N 30°04' W 093°22'0 0.0
2018-Feb-15 09:28N 30°04' W 093°22'0 0.0
2018-Feb-15 08:58N 30°04' W 093°22'0 0.0
2018-Feb-15 08:28N 30°04' W 093°22'0 0.0
2018-Feb-15 07:58N 30°04' W 093°22'0 0.0
2018-Feb-15 07:28N 30°04' W 093°22'0 0.0
2018-Feb-15 06:58N 30°04' W 093°22'0 0.0
2018-Feb-15 06:25N 30°04' W 093°22'0 0.0
2018-Feb-15 05:58N 30°04' W 093°22'0 0.0
2018-Feb-15 05:28N 30°04' W 093°22'0 0.0
2018-Feb-15 04:55N 30°04' W 093°22'0 0.0
2018-Feb-15 04:28N 30°04' W 093°22'0 0.0
2018-Feb-15 03:58N 30°04' W 093°22'0 0.0
2018-Feb-15 03:28N 30°04' W 093°22'0 0.0
2018-Feb-15 02:46N 30°04' W 093°22'0 0.0
2018-Feb-15 02:22N 30°04' W 093°22'0 0.0
2018-Feb-15 01:58N 30°04' W 093°22'0 0.0
2018-Feb-15 01:28N 30°04' W 093°22'0 0.0
2018-Feb-15 00:58N 30°04' W 093°22'0 0.0
2018-Feb-15 00:28N 30°04' W 093°22'0 0.0
2018-Feb-14 23:58N 30°04' W 093°22'0 0.2
2018-Feb-14 23:30N 30°04' W 093°22'2 3.8
2018-Feb-14 23:00N 30°05' W 093°20'3 6.4
2018-Feb-14 22:30N 30°08' W 093°20'0 0.8
2018-Feb-14 21:59N 30°08' W 093°19'0 0.1
2018-Feb-14 21:26N 30°08' W 093°19'0 0.0
2018-Feb-14 20:59N 30°08' W 093°19'0 0.0
2018-Feb-14 20:29N 30°08' W 093°19'0 0.0
2018-Feb-14 20:01N 30°08' W 093°19'2 4.7
2018-Feb-14 19:30N 30°06' W 093°20'3 5.7
2018-Feb-14 19:00N 30°04' W 093°22'0 0.4
2018-Feb-14 18:29N 30°04' W 093°22'0 0.0
2018-Feb-14 17:59N 30°04' W 093°22'0 0.0
2018-Feb-14 17:30N 30°04' W 093°22'0 0.0
2018-Feb-14 17:00N 30°04' W 093°22'0 0.0
2018-Feb-14 16:30N 30°04' W 093°22'0 0.0
2018-Feb-14 16:00N 30°04' W 093°22'0 0.0
2018-Feb-14 15:30N 30°04' W 093°22'0 0.0
2018-Feb-14 15:00N 30°04' W 093°22'0 0.0
2018-Feb-14 14:30N 30°04' W 093°22'0 0.9
2018-Feb-14 14:00N 30°04' W 093°21'0 0.9
2018-Feb-14 13:30N 30°04' W 093°22'0 0.0
2018-Feb-14 13:00N 30°04' W 093°22'0 0.0
2018-Feb-14 12:30N 30°04' W 093°22'0 0.0
2018-Feb-14 12:00N 30°04' W 093°22'0 0.0
2018-Feb-14 11:30N 30°04' W 093°22'0 0.0
2018-Feb-14 11:00N 30°04' W 093°22'0 0.0
2018-Feb-14 10:30N 30°04' W 093°22'0 0.0
2018-Feb-14 10:00N 30°04' W 093°22'0 0.0
2018-Feb-14 09:30N 30°04' W 093°22'0 0.0
2018-Feb-14 09:00N 30°04' W 093°22'0 0.0
2018-Feb-14 08:30N 30°04' W 093°22'0 0.0
2018-Feb-14 08:00N 30°04' W 093°22'0 0.0
2018-Feb-14 07:30N 30°04' W 093°22'0 0.0
2018-Feb-14 06:59N 30°04' W 093°22'0 0.0
2018-Feb-14 06:30N 30°04' W 093°22'0 0.0
2018-Feb-14 06:00N 30°04' W 093°22'0 0.0
2018-Feb-14 05:30N 30°04' W 093°22'0 0.0
2018-Feb-14 05:00N 30°04' W 093°22'0 0.0
2018-Feb-14 04:29N 30°04' W 093°22'0 0.0
2018-Feb-14 04:00N 30°04' W 093°22'0 0.0
2018-Feb-14 03:30N 30°04' W 093°22'0 0.0
2018-Feb-14 02:58N 30°04' W 093°22'0 0.0
2018-Feb-14 02:30N 30°04' W 093°22'0 0.0
2018-Feb-14 02:00N 30°04' W 093°22'0 0.0
2018-Feb-14 01:30N 30°04' W 093°22'0 0.1
2018-Feb-14 00:58N 30°04' W 093°22'0 0.0
2018-Feb-14 00:30N 30°04' W 093°22'0 0.0
2018-Feb-14 00:00N 30°04' W 093°22'1 1.8
2018-Feb-13 23:30N 30°04' W 093°23'3 5.3
2018-Feb-13 23:00N 30°04' W 093°26'3 6.2
2018-Feb-13 22:30N 30°04' W 093°29'3 6.3
2018-Feb-13 22:00N 30°04' W 093°33'3 4.9
2018-Feb-13 21:28N 30°04' W 093°36'4 6.6
2018-Feb-13 20:57N 30°04' W 093°40'3 6.0
2018-Feb-13 20:30N 30°03' W 093°43'3 6.1
2018-Feb-13 20:00N 30°01' W 093°45'3 6.2
2018-Feb-13 19:30N 29°59' W 093°48'3 6.6
2018-Feb-13 19:00N 29°57' W 093°52'4 7.3
2018-Feb-13 18:30N 29°54' W 093°54'3 6.9
2018-Feb-13 18:00N 29°52' W 093°56'3 5.6
2018-Feb-13 17:30N 29°49' W 093°58'1 1.8
2018-Feb-13 16:59N 29°49' W 093°59'0 0.0
2018-Feb-13 16:29N 29°49' W 093°59'0 1.0
2018-Feb-13 16:00N 29°49' W 093°59'1 1.1
2018-Feb-13 15:29N 29°50' W 093°59'2 3.4
2018-Feb-13 14:59N 29°52' W 093°60'2 3.4
2018-Feb-13 14:30N 29°50' W 093°59'2 3.3
2018-Feb-13 14:00N 29°52' W 093°59'0 0.6
2018-Feb-13 13:30N 29°52' W 093°60'0 0.0
2018-Feb-13 12:59N 29°52' W 093°60'0 0.2
2018-Feb-13 12:30N 29°52' W 093°60'0 0.2
2018-Feb-13 12:00N 29°52' W 093°59'0 0.0
2018-Feb-13 11:30N 29°52' W 093°59'0 0.0
2018-Feb-13 11:00N 29°52' W 093°59'0 0.0
2018-Feb-13 10:30N 29°52' W 093°59'0 0.0
2018-Feb-13 10:00N 29°52' W 093°59'0 0.0
2018-Feb-13 09:30N 29°52' W 093°59'0 0.0
2018-Feb-13 09:00N 29°52' W 093°59'0 0.0
2018-Feb-13 08:30N 29°52' W 093°59'0 0.0
2018-Feb-13 08:00N 29°52' W 093°59'0 0.0
2018-Feb-13 07:30N 29°52' W 093°59'0 0.0
2018-Feb-13 07:00N 29°52' W 093°59'0 0.0
2018-Feb-13 06:30N 29°52' W 093°59'0 0.0
2018-Feb-13 06:00N 29°52' W 093°59'0 0.0
2018-Feb-13 05:30N 29°52' W 093°59'0 0.0
2018-Feb-13 05:00N 29°52' W 093°59'0 0.0
2018-Feb-13 04:30N 29°52' W 093°59'0 0.0
2018-Feb-13 04:00N 29°52' W 093°59'0 0.0
2018-Feb-13 03:30N 29°52' W 093°59'0 0.0
2018-Feb-13 03:00N 29°52' W 093°59'0 0.0
2018-Feb-13 02:30N 29°52' W 093°59'0 0.0
2018-Feb-13 02:00N 29°52' W 093°59'0 0.0
2018-Feb-13 01:30N 29°52' W 093°59'0 0.0
2018-Feb-13 01:00N 29°52' W 093°59'0 0.0
2018-Feb-13 00:30N 29°52' W 093°59'0 0.0
2018-Feb-13 00:00N 29°52' W 093°59'0 0.0
2018-Feb-12 23:30N 29°52' W 093°59'0 0.0
2018-Feb-12 23:00N 29°52' W 093°59'0 0.0
2018-Feb-12 22:30N 29°52' W 093°59'0 0.0
2018-Feb-12 22:00N 29°52' W 093°59'0 0.0
2018-Feb-12 21:30N 29°52' W 093°59'0 0.0
2018-Feb-12 21:00N 29°52' W 093°59'0 0.0
2018-Feb-12 20:30N 29°52' W 093°59'0 0.0
2018-Feb-12 20:00N 29°52' W 093°59'0 0.0
2018-Feb-12 19:30N 29°52' W 093°59'0 0.0
2018-Feb-12 19:00N 29°52' W 093°59'0 0.0
2018-Feb-12 18:30N 29°52' W 093°59'0 0.0
2018-Feb-12 18:00N 29°52' W 093°59'0 0.0
2018-Feb-12 17:30N 29°52' W 093°59'0 0.0
2018-Feb-12 17:00N 29°52' W 093°59'0 0.0
2018-Feb-12 16:30N 29°52' W 093°59'0 0.0
2018-Feb-12 16:00N 29°52' W 093°59'0 0.0
2018-Feb-12 15:30N 29°52' W 093°59'0 0.0
2018-Feb-12 15:00N 29°52' W 093°59'0 0.0
2018-Feb-12 14:30N 29°52' W 093°59'0 0.0
2018-Feb-12 14:00N 29°52' W 093°59'0 0.0
2018-Feb-12 13:30N 29°52' W 093°59'0 0.0
2018-Feb-12 13:00N 29°52' W 093°59'0 0.0
2018-Feb-12 12:30N 29°52' W 093°59'0 0.1
2018-Feb-12 11:59N 29°52' W 093°59'1 1.4
2018-Feb-12 11:30N 29°51' W 093°59'1 2.4
2018-Feb-12 10:58N 29°50' W 093°59'1 1.4
2018-Feb-12 10:30N 29°50' W 093°59'1 2.4
2018-Feb-12 09:58N 29°52' W 093°59'0 0.0
2018-Feb-12 09:28N 29°52' W 093°59'0 0.5
2018-Feb-12 08:58N 29°52' W 093°59'1 2.4
2018-Feb-12 08:30N 29°51' W 093°59'0 0.5
2018-Feb-12 07:59N 29°50' W 093°59'0 0.1
2018-Feb-12 07:29N 29°50' W 093°59'0 0.0
2018-Feb-12 06:59N 29°50' W 093°59'0 0.0
2018-Feb-12 06:29N 29°50' W 093°59'0 0.0
2018-Feb-12 05:59N 29°50' W 093°59'0 0.0
2018-Feb-12 05:29N 29°50' W 093°59'0 0.0
2018-Feb-12 04:59N 29°50' W 093°59'0 0.0
2018-Feb-12 04:29N 29°50' W 093°59'0 0.0
2018-Feb-12 03:59N 29°50' W 093°59'0 0.0
2018-Feb-12 03:29N 29°50' W 093°59'0 0.0
2018-Feb-12 02:59N 29°50' W 093°59'0 0.0
2018-Feb-12 02:29N 29°50' W 093°59'0 0.0
2018-Feb-12 01:59N 29°50' W 093°59'0 0.0
2018-Feb-12 01:29N 29°50' W 093°59'0 0.0
2018-Feb-12 00:59N 29°50' W 093°59'0 0.0
2018-Feb-12 00:29N 29°50' W 093°59'0 0.0
2018-Feb-11 23:56N 29°50' W 093°59'0 0.0
2018-Feb-11 23:29N 29°50' W 093°59'0 0.0
2018-Feb-11 22:59N 29°50' W 093°59'0 0.0
2018-Feb-11 22:29N 29°50' W 093°59'0 0.0
2018-Feb-11 21:59N 29°50' W 093°59'0 0.0
2018-Feb-11 21:29N 29°50' W 093°59'0 0.0
2018-Feb-11 20:59N 29°50' W 093°59'0 0.0
2018-Feb-11 20:23N 29°50' W 093°59'0 0.0
2018-Feb-11 19:59N 29°50' W 093°59'0 0.0
2018-Feb-11 19:26N 29°50' W 093°59'0 0.0
2018-Feb-11 18:59N 29°50' W 093°59'0 0.0
2018-Feb-11 18:29N 29°50' W 093°59'0 0.0
2018-Feb-11 17:59N 29°50' W 093°59'0 0.0
2018-Feb-11 17:29N 29°50' W 093°59'0 0.0
2018-Feb-11 16:56N 29°50' W 093°59'0 0.0
2018-Feb-11 16:29N 29°50' W 093°59'0 0.0
2018-Feb-11 15:59N 29°50' W 093°59'0 0.0
2018-Feb-11 15:29N 29°50' W 093°59'0 0.0
2018-Feb-11 14:59N 29°50' W 093°59'0 0.0
2018-Feb-11 14:29N 29°50' W 093°59'0 0.0
2018-Feb-11 13:59N 29°50' W 093°59'0 0.0
2018-Feb-11 13:29N 29°50' W 093°59'0 0.0
2018-Feb-11 12:59N 29°50' W 093°59'0 0.0
2018-Feb-11 12:30N 29°50' W 093°59'0 0.0
2018-Feb-11 12:00N 29°50' W 093°59'0 0.0
2018-Feb-11 11:30N 29°50' W 093°59'0 0.0
2018-Feb-11 11:00N 29°50' W 093°59'0 0.0
2018-Feb-11 10:30N 29°50' W 093°59'0 0.0
2018-Feb-11 10:00N 29°50' W 093°59'0 0.0
2018-Feb-11 09:30N 29°50' W 093°59'0 0.0
2018-Feb-11 09:00N 29°50' W 093°59'0 0.0
2018-Feb-11 08:30N 29°50' W 093°59'0 0.0
2018-Feb-11 08:00N 29°50' W 093°59'0 0.0
2018-Feb-11 07:27N 29°50' W 093°59'0 0.0
2018-Feb-11 06:48N 29°50' W 093°59'0 0.0
2018-Feb-11 06:30N 29°50' W 093°59'0 0.0
2018-Feb-11 06:00N 29°50' W 093°59'0 0.0
2018-Feb-11 05:30N 29°50' W 093°59'0 0.0
2018-Feb-11 05:00N 29°50' W 093°59'0 0.0
2018-Feb-11 04:30N 29°50' W 093°59'0 0.0
2018-Feb-11 03:51N 29°50' W 093°59'0 0.2
2018-Feb-11 03:30N 29°50' W 093°59'1 2.4
2018-Feb-11 02:56N 29°49' W 093°59'1 2.9
2018-Feb-11 02:30N 29°49' W 093°58'3 5.7
2018-Feb-11 02:00N 29°52' W 093°56'3 6.8
2018-Feb-11 01:30N 29°54' W 093°54'3 6.7
2018-Feb-11 01:00N 29°57' W 093°52'3 4.8
2018-Feb-11 00:29N 29°59' W 093°49'3 5.9
2018-Feb-11 00:00N 30°00' W 093°46'2 4.8
2018-Feb-10 23:30N 30°02' W 093°44'2 4.0
2018-Feb-10 23:00N 30°03' W 093°43'2 4.4
2018-Feb-10 22:29N 30°04' W 093°40'2 4.5
2018-Feb-10 21:59N 30°04' W 093°38'2 4.2
2018-Feb-10 21:29N 30°04' W 093°35'2 3.3
2018-Feb-10 21:00N 30°04' W 093°33'2 4.3
2018-Feb-10 20:30N 30°04' W 093°31'2 4.4
2018-Feb-10 20:00N 30°04' W 093°28'2 4.3
2018-Feb-10 19:30N 30°04' W 093°26'2 3.4
2018-Feb-10 19:00N 30°04' W 093°24'2 4.1
2018-Feb-10 18:30N 30°04' W 093°21'2 3.4
2018-Feb-10 18:00N 30°05' W 093°20'1 1.8
2018-Feb-10 17:30N 30°06' W 093°19'0 0.7
2018-Feb-10 17:00N 30°06' W 093°19'1 2.1
2018-Feb-10 16:31N 30°07' W 093°20'2 3.5
2018-Feb-10 16:00N 30°08' W 093°20'0 0.1
2018-Feb-10 15:29N 30°08' W 093°20'0 0.0
2018-Feb-10 15:00N 30°08' W 093°20'0 0.0
2018-Feb-10 14:29N 30°08' W 093°20'0 0.0
2018-Feb-10 13:59N 30°08' W 093°20'0 0.0
2018-Feb-10 13:29N 30°08' W 093°20'0 0.0
2018-Feb-10 12:59N 30°08' W 093°20'0 0.0
2018-Feb-10 12:29N 30°08' W 093°20'0 0.0
2018-Feb-10 11:59N 30°08' W 093°20'0 0.0
2018-Feb-10 11:29N 30°08' W 093°20'0 0.0
2018-Feb-10 10:59N 30°08' W 093°20'0 0.0
2018-Feb-10 10:29N 30°08' W 093°20'0 0.0
2018-Feb-10 09:59N 30°08' W 093°20'0 0.0
2018-Feb-10 09:29N 30°08' W 093°20'0 0.0
2018-Feb-10 08:59N 30°08' W 093°20'0 0.0
2018-Feb-10 08:29N 30°08' W 093°20'0 0.1
2018-Feb-10 08:00N 30°08' W 093°20'0 0.2
2018-Feb-10 07:30N 30°09' W 093°20'0 0.0
2018-Feb-10 07:00N 30°09' W 093°20'  
Track history (hours):
 
Tides and Currents Weather Stations Pressure Air Temp Water Temp Dewpoint Dewpoint Depression Visibility Wind Speed Wind Dir Waves Ship Positions

Kenny Billiot

Owner: Wood Resources LLC, Avondale, LA. More information available from US FCC via Universal Licensing System and Coast Guard Vessel Documentation Center.

Last reported at 2018-Feb-20 07:00 UTC. Time now 2018-Feb-20 07:28 UTC.
Position N 29°52' W 093°59'.

Length 21 m; draft 3 m.

Type: . MMSI: 367556670.

Date/timePositionNaut miles runAvg speedWind from/ knotsBaromVisibWave heightAir tempDewpointWater temp
2018-Feb-20 07:00N 29°52' W 093°59'0 0.0
2018-Feb-20 06:30N 29°52' W 093°59'0 0.0
2018-Feb-20 06:01N 29°52' W 093°59'0 0.0
2018-Feb-20 05:31N 29°52' W 093°59'0 0.0
2018-Feb-20 05:01N 29°52' W 093°59'0 0.0
2018-Feb-20 04:30N 29°52' W 093°59'0 0.1
2018-Feb-20 04:01N 29°52' W 093°60'0 0.0
2018-Feb-20 03:31N 29°52' W 093°60'0 0.0
2018-Feb-20 03:00N 29°52' W 093°60'0 0.0
2018-Feb-20 02:31N 29°52' W 093°60'0 0.1
2018-Feb-20 01:59N 29°52' W 093°59'1 1.8
2018-Feb-20 01:31N 29°51' W 093°59'1 1.9
2018-Feb-20 01:00N 29°50' W 093°59'1 2.5
2018-Feb-20 00:30N 29°51' W 093°59'1 1.2
2018-Feb-20 00:01N 29°52' W 093°59'1 2.8
2018-Feb-19 23:31N 29°50' W 093°59'1 1.4
2018-Feb-19 23:01N 29°50' W 093°59'1 1.4
2018-Feb-19 22:30N 29°49' W 093°59'2 4.1
2018-Feb-19 22:00N 29°51' W 093°57'3 6.1
2018-Feb-19 21:30N 29°53' W 093°55'3 6.3
2018-Feb-19 21:00N 29°56' W 093°53'3 5.9
2018-Feb-19 20:31N 29°58' W 093°51'2 4.6
2018-Feb-19 20:00N 29°59' W 093°49'3 5.0
2018-Feb-19 19:30N 30°00' W 093°46'3 4.9
2018-Feb-19 18:59N 30°02' W 093°44'2 4.3
2018-Feb-19 18:29N 30°03' W 093°42'1 2.5
2018-Feb-19 18:01N 30°04' W 093°41'2 4.4
2018-Feb-19 17:28N 30°04' W 093°38'2 4.8
2018-Feb-19 16:58N 30°04' W 093°35'2 4.6
2018-Feb-19 16:30N 30°04' W 093°33'2 4.4
2018-Feb-19 16:00N 30°04' W 093°30'2 4.6
2018-Feb-19 15:30N 30°04' W 093°28'2 4.1
2018-Feb-19 15:01N 30°04' W 093°25'2 4.1
2018-Feb-19 14:26N 30°04' W 093°23'2 4.3
2018-Feb-19 13:55N 30°04' W 093°20'1 3.5
2018-Feb-19 13:31N 30°06' W 093°20'1 2.3
2018-Feb-19 13:00N 30°07' W 093°20'2 3.1
2018-Feb-19 12:31N 30°08' W 093°20'0 0.0
2018-Feb-19 12:01N 30°08' W 093°20'0 0.0
2018-Feb-19 11:31N 30°08' W 093°20'0 0.0
2018-Feb-19 11:00N 30°08' W 093°20'0 0.0
2018-Feb-19 10:31N 30°08' W 093°20'0 0.0
2018-Feb-19 10:01N 30°08' W 093°20'0 0.0
2018-Feb-19 09:28N 30°08' W 093°20'0 0.0
2018-Feb-19 09:01N 30°08' W 093°20'0 0.0
2018-Feb-19 08:30N 30°08' W 093°20'0 0.0
2018-Feb-19 08:00N 30°08' W 093°20'0 0.0
2018-Feb-19 07:30N 30°08' W 093°20'0 0.1
2018-Feb-19 07:01N 30°08' W 093°20'0 0.0
2018-Feb-19 06:30N 30°08' W 093°20'0 0.0
2018-Feb-19 06:00N 30°08' W 093°20'0 0.0
2018-Feb-19 05:31N 30°08' W 093°20'0 0.0
2018-Feb-19 05:00N 30°08' W 093°20'0 0.0
2018-Feb-19 04:30N 30°08' W 093°20'0 0.0
2018-Feb-19 04:00N 30°08' W 093°20'0 0.1
2018-Feb-19 03:31N 30°08' W 093°20'0 0.1
2018-Feb-19 03:01N 30°08' W 093°20'0 0.0
2018-Feb-19 02:31N 30°08' W 093°20'0 0.1
2018-Feb-19 02:01N 30°08' W 093°20'0 0.0
2018-Feb-19 01:31N 30°08' W 093°20'1 2.3
2018-Feb-19 01:01N 30°10' W 093°19'2 3.6
2018-Feb-19 00:31N 30°11' W 093°18'0 0.3
2018-Feb-19 00:00N 30°11' W 093°19'0 0.0
2018-Feb-18 23:31N 30°11' W 093°19'0 0.0
2018-Feb-18 23:01N 30°11' W 093°19'0 0.0
2018-Feb-18 22:30N 30°11' W 093°19'0 0.0
2018-Feb-18 22:00N 30°11' W 093°19'0 0.0
2018-Feb-18 21:30N 30°11' W 093°19'0 0.0
2018-Feb-18 20:56N 30°11' W 093°19'0 0.0
2018-Feb-18 20:29N 30°11' W 093°19'0 0.0
2018-Feb-18 19:59N 30°11' W 093°19'0 0.0
2018-Feb-18 19:29N 30°11' W 093°19'0 0.0
2018-Feb-18 18:59N 30°11' W 093°19'0 0.0
2018-Feb-18 18:29N 30°11' W 093°19'0 0.0
2018-Feb-18 17:59N 30°11' W 093°19'0 0.0
2018-Feb-18 17:29N 30°11' W 093°19'0 0.0
2018-Feb-18 16:59N 30°11' W 093°19'0 0.0
2018-Feb-18 16:29N 30°11' W 093°19'0 0.0
2018-Feb-18 15:59N 30°11' W 093°19'0 0.0
2018-Feb-18 15:29N 30°11' W 093°19'0 0.0
2018-Feb-18 14:59N 30°11' W 093°19'0 0.0
2018-Feb-18 14:29N 30°11' W 093°19'0 0.0
2018-Feb-18 13:59N 30°11' W 093°19'0 0.0
2018-Feb-18 13:29N 30°11' W 093°19'0 0.0
2018-Feb-18 12:59N 30°11' W 093°19'0 0.0
2018-Feb-18 12:29N 30°11' W 093°19'0 0.0
2018-Feb-18 11:59N 30°11' W 093°19'0 0.0
2018-Feb-18 11:29N 30°11' W 093°19'0 0.0
2018-Feb-18 10:59N 30°11' W 093°19'0 0.0
2018-Feb-18 10:29N 30°11' W 093°19'0 0.0
2018-Feb-18 09:59N 30°11' W 093°19'0 0.0
2018-Feb-18 09:29N 30°11' W 093°19'0 0.0
2018-Feb-18 08:59N 30°11' W 093°19'0 0.0
2018-Feb-18 08:26N 30°11' W 093°19'0 0.0
2018-Feb-18 07:59N 30°11' W 093°19'0 0.0
2018-Feb-18 07:29N 30°11' W 093°19'0 0.0
2018-Feb-18 06:59N 30°11' W 093°19'0 0.0
2018-Feb-18 06:29N 30°11' W 093°19'0 0.0
2018-Feb-18 05:59N 30°11' W 093°19'0 0.0
2018-Feb-18 05:29N 30°11' W 093°19'0 0.0
2018-Feb-18 04:59N 30°11' W 093°19'0 0.0
2018-Feb-18 04:29N 30°11' W 093°19'0 0.0
2018-Feb-18 03:59N 30°11' W 093°19'0 0.0
2018-Feb-18 03:29N 30°11' W 093°19'0 0.0
2018-Feb-18 02:59N 30°11' W 093°19'0 0.0
2018-Feb-18 02:29N 30°11' W 093°19'0 0.0
2018-Feb-18 01:59N 30°11' W 093°19'0 0.0
2018-Feb-18 01:29N 30°11' W 093°19'0 0.0
2018-Feb-18 00:59N 30°11' W 093°19'0 0.0
2018-Feb-18 00:29N 30°11' W 093°19'0 0.0
2018-Feb-17 23:59N 30°11' W 093°19'0 0.0
2018-Feb-17 23:29N 30°11' W 093°19'0 0.0
2018-Feb-17 22:59N 30°11' W 093°19'0 0.0
2018-Feb-17 22:29N 30°11' W 093°19'0 0.1
2018-Feb-17 21:59N 30°11' W 093°19'0 0.0
2018-Feb-17 21:29N 30°11' W 093°19'1 2.4
2018-Feb-17 21:01N 30°10' W 093°19'2 4.9
2018-Feb-17 20:31N 30°08' W 093°20'2 4.5
2018-Feb-17 19:59N 30°05' W 093°20'2 3.8
2018-Feb-17 19:30N 30°04' W 093°21'1 1.7
2018-Feb-17 19:01N 30°04' W 093°22'0 0.1
2018-Feb-17 18:29N 30°04' W 093°22'0 0.0
2018-Feb-17 17:59N 30°04' W 093°22'0 0.0
2018-Feb-17 17:29N 30°04' W 093°22'0 0.0
2018-Feb-17 16:59N 30°04' W 093°22'0 0.0
2018-Feb-17 16:29N 30°04' W 093°22'0 0.0
2018-Feb-17 15:59N 30°04' W 093°22'0 0.0
2018-Feb-17 15:29N 30°04' W 093°22'0 0.0
2018-Feb-17 14:59N 30°04' W 093°22'0 0.0
2018-Feb-17 14:29N 30°04' W 093°22'0 0.0
2018-Feb-17 13:59N 30°04' W 093°22'0 0.0
2018-Feb-17 13:29N 30°04' W 093°22'0 0.0
2018-Feb-17 12:59N 30°04' W 093°22'0 0.0
2018-Feb-17 12:29N 30°04' W 093°22'0 0.0
2018-Feb-17 11:59N 30°04' W 093°22'0 0.0
2018-Feb-17 11:29N 30°04' W 093°22'0 0.0
2018-Feb-17 10:59N 30°04' W 093°22'0 0.0
2018-Feb-17 10:29N 30°04' W 093°22'0 0.0
2018-Feb-17 09:59N 30°04' W 093°22'0 0.0
2018-Feb-17 09:29N 30°04' W 093°22'0 0.0
2018-Feb-17 08:59N 30°04' W 093°22'0 0.0
2018-Feb-17 08:29N 30°04' W 093°22'0 0.0
2018-Feb-17 07:59N 30°04' W 093°22'0 0.0
2018-Feb-17 07:29N 30°04' W 093°22'0 0.0
2018-Feb-17 06:59N 30°04' W 093°22'0 0.0
2018-Feb-17 06:29N 30°04' W 093°22'0 0.0
2018-Feb-17 05:59N 30°04' W 093°22'0 0.0
2018-Feb-17 05:29N 30°04' W 093°22'0 0.0
2018-Feb-17 04:59N 30°04' W 093°22'0 0.0
2018-Feb-17 04:29N 30°04' W 093°22'0 0.0
2018-Feb-17 03:59N 30°04' W 093°22'0 0.0
2018-Feb-17 03:29N 30°04' W 093°22'0 0.0
2018-Feb-17 02:59N 30°04' W 093°22'0 0.0
2018-Feb-17 02:29N 30°04' W 093°22'0 0.0
2018-Feb-17 01:59N 30°04' W 093°22'0 0.0
2018-Feb-17 01:26N 30°04' W 093°22'0 0.0
2018-Feb-17 00:53N 30°04' W 093°22'0 0.0
2018-Feb-17 00:29N 30°04' W 093°22'0 0.0
2018-Feb-16 23:50N 30°04' W 093°22'0 0.0
2018-Feb-16 23:17N 30°04' W 093°22'0 0.0
2018-Feb-16 22:59N 30°04' W 093°22'0 0.0
2018-Feb-16 22:29N 30°04' W 093°22'0 0.0
2018-Feb-16 21:59N 30°04' W 093°22'0 0.0
2018-Feb-16 21:29N 30°04' W 093°22'0 0.3
2018-Feb-16 21:00N 30°04' W 093°22'0 0.2
2018-Feb-16 20:28N 30°04' W 093°22'0 0.6
2018-Feb-16 20:01N 30°04' W 093°21'0 0.8
2018-Feb-16 19:30N 30°04' W 093°22'0 0.2
2018-Feb-16 18:58N 30°04' W 093°22'0 0.0
2018-Feb-16 18:28N 30°04' W 093°22'0 0.0
2018-Feb-16 17:58N 30°04' W 093°22'0 0.0
2018-Feb-16 17:28N 30°04' W 093°22'0 0.0
2018-Feb-16 16:58N 30°04' W 093°22'0 0.0
2018-Feb-16 16:25N 30°04' W 093°22'0 0.0
2018-Feb-16 15:58N 30°04' W 093°22'0 0.0
2018-Feb-16 15:28N 30°04' W 093°22'0 0.0
2018-Feb-16 14:58N 30°04' W 093°22'0 0.7
2018-Feb-16 14:30N 30°04' W 093°21'0 0.7
2018-Feb-16 14:00N 30°04' W 093°22'0 0.1
2018-Feb-16 13:29N 30°04' W 093°22'0 0.0
2018-Feb-16 12:59N 30°04' W 093°22'0 0.0
2018-Feb-16 12:29N 30°04' W 093°22'0 0.0
2018-Feb-16 11:59N 30°04' W 093°22'0 0.0
2018-Feb-16 11:29N 30°04' W 093°22'0 0.0
2018-Feb-16 10:59N 30°04' W 093°22'0 0.0
2018-Feb-16 10:26N 30°04' W 093°22'0 0.0
2018-Feb-16 09:59N 30°04' W 093°22'0 0.0
2018-Feb-16 09:29N 30°04' W 093°22'0 0.0
2018-Feb-16 08:59N 30°04' W 093°22'0 0.0
2018-Feb-16 08:29N 30°04' W 093°22'0 0.0
2018-Feb-16 07:59N 30°04' W 093°22'0 0.0
2018-Feb-16 07:29N 30°04' W 093°22'0 0.0
2018-Feb-16 06:59N 30°04' W 093°22'0 0.0
2018-Feb-16 06:29N 30°04' W 093°22'0 0.0
2018-Feb-16 05:59N 30°04' W 093°22'0 0.0
2018-Feb-16 05:29N 30°04' W 093°22'0 0.0
2018-Feb-16 04:53N 30°04' W 093°22'0 0.0
2018-Feb-16 04:29N 30°04' W 093°22'0 0.0
2018-Feb-16 03:59N 30°04' W 093°22'0 0.0
2018-Feb-16 03:29N 30°04' W 093°22'0 0.0
2018-Feb-16 02:59N 30°04' W 093°22'0 0.0
2018-Feb-16 02:29N 30°04' W 093°22'0 0.0
2018-Feb-16 01:59N 30°04' W 093°22'0 0.0
2018-Feb-16 01:29N 30°04' W 093°22'0 0.0
2018-Feb-16 00:59N 30°04' W 093°22'0 0.0
2018-Feb-16 00:23N 30°04' W 093°22'0 0.0
2018-Feb-15 23:56N 30°04' W 093°22'0 0.0
2018-Feb-15 23:29N 30°04' W 093°22'0 0.0
2018-Feb-15 22:56N 30°04' W 093°22'0 0.0
2018-Feb-15 22:29N 30°04' W 093°22'0 0.0
2018-Feb-15 21:59N 30°04' W 093°22'0 0.0
2018-Feb-15 21:29N 30°04' W 093°22'0 0.0
2018-Feb-15 20:59N 30°04' W 093°22'0 0.0
2018-Feb-15 20:30N 30°04' W 093°22'0 0.9
2018-Feb-15 20:00N 30°04' W 093°21'0 0.0
2018-Feb-15 19:30N 30°04' W 093°21'0 0.0
2018-Feb-15 19:00N 30°04' W 093°21'0 0.0
2018-Feb-15 18:30N 30°04' W 093°21'0 0.0
2018-Feb-15 18:00N 30°04' W 093°21'0 0.0
2018-Feb-15 17:30N 30°04' W 093°21'0 0.8
2018-Feb-15 16:58N 30°04' W 093°22'0 0.0
2018-Feb-15 16:28N 30°04' W 093°22'0 0.0
2018-Feb-15 15:58N 30°04' W 093°22'0 0.0
2018-Feb-15 15:28N 30°04' W 093°22'0 0.0
2018-Feb-15 14:58N 30°04' W 093°22'0 0.0
2018-Feb-15 14:28N 30°04' W 093°22'0 0.0
2018-Feb-15 13:58N 30°04' W 093°22'0 0.0
2018-Feb-15 13:28N 30°04' W 093°22'0 0.0
2018-Feb-15 12:58N 30°04' W 093°22'0 0.0
2018-Feb-15 12:28N 30°04' W 093°22'0 0.0
2018-Feb-15 11:58N 30°04' W 093°22'0 0.0
2018-Feb-15 11:28N 30°04' W 093°22'0 0.0
2018-Feb-15 10:58N 30°04' W 093°22'0 0.0
2018-Feb-15 10:28N 30°04' W 093°22'0 0.0
2018-Feb-15 09:58N 30°04' W 093°22'0 0.0
2018-Feb-15 09:28N 30°04' W 093°22'0 0.0
2018-Feb-15 08:58N 30°04' W 093°22'0 0.0
2018-Feb-15 08:28N 30°04' W 093°22'0 0.0
2018-Feb-15 07:58N 30°04' W 093°22'0 0.0
2018-Feb-15 07:28N 30°04' W 093°22'0 0.0
2018-Feb-15 06:58N 30°04' W 093°22'0 0.0
2018-Feb-15 06:25N 30°04' W 093°22'0 0.0
2018-Feb-15 05:58N 30°04' W 093°22'0 0.0
2018-Feb-15 05:28N 30°04' W 093°22'0 0.0
2018-Feb-15 04:55N 30°04' W 093°22'0 0.0
2018-Feb-15 04:28N 30°04' W 093°22'0 0.0
2018-Feb-15 03:58N 30°04' W 093°22'0 0.0
2018-Feb-15 03:28N 30°04' W 093°22'0 0.0
2018-Feb-15 02:46N 30°04' W 093°22'0 0.0
2018-Feb-15 02:22N 30°04' W 093°22'0 0.0
2018-Feb-15 01:58N 30°04' W 093°22'0 0.0
2018-Feb-15 01:28N 30°04' W 093°22'0 0.0
2018-Feb-15 00:58N 30°04' W 093°22'0 0.0
2018-Feb-15 00:28N 30°04' W 093°22'0 0.0
2018-Feb-14 23:58N 30°04' W 093°22'0 0.2
2018-Feb-14 23:30N 30°04' W 093°22'2 3.8
2018-Feb-14 23:00N 30°05' W 093°20'3 6.4
2018-Feb-14 22:30N 30°08' W 093°20'0 0.8
2018-Feb-14 21:59N 30°08' W 093°19'0 0.1
2018-Feb-14 21:26N 30°08' W 093°19'0 0.0
2018-Feb-14 20:59N 30°08' W 093°19'0 0.0
2018-Feb-14 20:29N 30°08' W 093°19'0 0.0
2018-Feb-14 20:01N 30°08' W 093°19'2 4.7
2018-Feb-14 19:30N 30°06' W 093°20'3 5.7
2018-Feb-14 19:00N 30°04' W 093°22'0 0.4
2018-Feb-14 18:29N 30°04' W 093°22'0 0.0
2018-Feb-14 17:59N 30°04' W 093°22'0 0.0
2018-Feb-14 17:30N 30°04' W 093°22'0 0.0
2018-Feb-14 17:00N 30°04' W 093°22'0 0.0
2018-Feb-14 16:30N 30°04' W 093°22'0 0.0
2018-Feb-14 16:00N 30°04' W 093°22'0 0.0
2018-Feb-14 15:30N 30°04' W 093°22'0 0.0
2018-Feb-14 15:00N 30°04' W 093°22'0 0.0
2018-Feb-14 14:30N 30°04' W 093°22'0 0.9
2018-Feb-14 14:00N 30°04' W 093°21'0 0.9
2018-Feb-14 13:30N 30°04' W 093°22'0 0.0
2018-Feb-14 13:00N 30°04' W 093°22'0 0.0
2018-Feb-14 12:30N 30°04' W 093°22'0 0.0
2018-Feb-14 12:00N 30°04' W 093°22'0 0.0
2018-Feb-14 11:30N 30°04' W 093°22'0 0.0
2018-Feb-14 11:00N 30°04' W 093°22'0 0.0
2018-Feb-14 10:30N 30°04' W 093°22'0 0.0
2018-Feb-14 10:00N 30°04' W 093°22'0 0.0
2018-Feb-14 09:30N 30°04' W 093°22'0 0.0
2018-Feb-14 09:00N 30°04' W 093°22'0 0.0
2018-Feb-14 08:30N 30°04' W 093°22'0 0.0
2018-Feb-14 08:00N 30°04' W 093°22'0 0.0
2018-Feb-14 07:30N 30°04' W 093°22'0 0.0
2018-Feb-14 06:59N 30°04' W 093°22'0 0.0
2018-Feb-14 06:30N 30°04' W 093°22'0 0.0
2018-Feb-14 06:00N 30°04' W 093°22'0 0.0
2018-Feb-14 05:30N 30°04' W 093°22'0 0.0
2018-Feb-14 05:00N 30°04' W 093°22'0 0.0
2018-Feb-14 04:29N 30°04' W 093°22'0 0.0
2018-Feb-14 04:00N 30°04' W 093°22'0 0.0
2018-Feb-14 03:30N 30°04' W 093°22'0 0.0
2018-Feb-14 02:58N 30°04' W 093°22'0 0.0
2018-Feb-14 02:30N 30°04' W 093°22'0 0.0
2018-Feb-14 02:00N 30°04' W 093°22'0 0.0
2018-Feb-14 01:30N 30°04' W 093°22'0 0.1
2018-Feb-14 00:58N 30°04' W 093°22'0 0.0
2018-Feb-14 00:30N 30°04' W 093°22'0 0.0
2018-Feb-14 00:00N 30°04' W 093°22'1 1.8
2018-Feb-13 23:30N 30°04' W 093°23'3 5.3
2018-Feb-13 23:00N 30°04' W 093°26'3 6.2
2018-Feb-13 22:30N 30°04' W 093°29'3 6.3
2018-Feb-13 22:00N 30°04' W 093°33'3 4.9
2018-Feb-13 21:28N 30°04' W 093°36'4 6.6
2018-Feb-13 20:57N 30°04' W 093°40'3 6.0
2018-Feb-13 20:30N 30°03' W 093°43'3 6.1
2018-Feb-13 20:00N 30°01' W 093°45'3 6.2
2018-Feb-13 19:30N 29°59' W 093°48'3 6.6
2018-Feb-13 19:00N 29°57' W 093°52'4 7.3
2018-Feb-13 18:30N 29°54' W 093°54'3 6.9
2018-Feb-13 18:00N 29°52' W 093°56'3 5.6
2018-Feb-13 17:30N 29°49' W 093°58'1 1.8
2018-Feb-13 16:59N 29°49' W 093°59'0 0.0
2018-Feb-13 16:29N 29°49' W 093°59'0 1.0
2018-Feb-13 16:00N 29°49' W 093°59'1 1.1
2018-Feb-13 15:29N 29°50' W 093°59'2 3.4
2018-Feb-13 14:59N 29°52' W 093°60'2 3.4
2018-Feb-13 14:30N 29°50' W 093°59'2 3.3
2018-Feb-13 14:00N 29°52' W 093°59'0 0.6
2018-Feb-13 13:30N 29°52' W 093°60'0 0.0
2018-Feb-13 12:59N 29°52' W 093°60'0 0.2
2018-Feb-13 12:30N 29°52' W 093°60'0 0.2
2018-Feb-13 12:00N 29°52' W 093°59'0 0.0
2018-Feb-13 11:30N 29°52' W 093°59'0 0.0
2018-Feb-13 11:00N 29°52' W 093°59'0 0.0
2018-Feb-13 10:30N 29°52' W 093°59'0 0.0
2018-Feb-13 10:00N 29°52' W 093°59'0 0.0
2018-Feb-13 09:30N 29°52' W 093°59'0 0.0
2018-Feb-13 09:00N 29°52' W 093°59'0 0.0
2018-Feb-13 08:30N 29°52' W 093°59'0 0.0
2018-Feb-13 08:00N 29°52' W 093°59'0 0.0
2018-Feb-13 07:30N 29°52' W 093°59'0 0.0
2018-Feb-13 07:00N 29°52' W 093°59'0 0.0
2018-Feb-13 06:30N 29°52' W 093°59'0 0.0
2018-Feb-13 06:00N 29°52' W 093°59'0 0.0
2018-Feb-13 05:30N 29°52' W 093°59'0 0.0
2018-Feb-13 05:00N 29°52' W 093°59'0 0.0
2018-Feb-13 04:30N 29°52' W 093°59'0 0.0
2018-Feb-13 04:00N 29°52' W 093°59'0 0.0
2018-Feb-13 03:30N 29°52' W 093°59'0 0.0
2018-Feb-13 03:00N 29°52' W 093°59'0 0.0
2018-Feb-13 02:30N 29°52' W 093°59'0 0.0
2018-Feb-13 02:00N 29°52' W 093°59'0 0.0
2018-Feb-13 01:30N 29°52' W 093°59'0 0.0
2018-Feb-13 01:00N 29°52' W 093°59'0 0.0
2018-Feb-13 00:30N 29°52' W 093°59'0 0.0
2018-Feb-13 00:00N 29°52' W 093°59'0 0.0
2018-Feb-12 23:30N 29°52' W 093°59'0 0.0
2018-Feb-12 23:00N 29°52' W 093°59'0 0.0
2018-Feb-12 22:30N 29°52' W 093°59'0 0.0
2018-Feb-12 22:00N 29°52' W 093°59'0 0.0
2018-Feb-12 21:30N 29°52' W 093°59'0 0.0
2018-Feb-12 21:00N 29°52' W 093°59'0 0.0
2018-Feb-12 20:30N 29°52' W 093°59'0 0.0
2018-Feb-12 20:00N 29°52' W 093°59'0 0.0
2018-Feb-12 19:30N 29°52' W 093°59'0 0.0
2018-Feb-12 19:00N 29°52' W 093°59'0 0.0
2018-Feb-12 18:30N 29°52' W 093°59'0 0.0
2018-Feb-12 18:00N 29°52' W 093°59'0 0.0
2018-Feb-12 17:30N 29°52' W 093°59'0 0.0
2018-Feb-12 17:00N 29°52' W 093°59'0 0.0
2018-Feb-12 16:30N 29°52' W 093°59'0 0.0
2018-Feb-12 16:00N 29°52' W 093°59'0 0.0
2018-Feb-12 15:30N 29°52' W 093°59'0 0.0
2018-Feb-12 15:00N 29°52' W 093°59'0 0.0
2018-Feb-12 14:30N 29°52' W 093°59'0 0.0
2018-Feb-12 14:00N 29°52' W 093°59'0 0.0
2018-Feb-12 13:30N 29°52' W 093°59'0 0.0
2018-Feb-12 13:00N 29°52' W 093°59'0 0.0
2018-Feb-12 12:30N 29°52' W 093°59'0 0.1
2018-Feb-12 11:59N 29°52' W 093°59'1 1.4
2018-Feb-12 11:30N 29°51' W 093°59'1 2.4
2018-Feb-12 10:58N 29°50' W 093°59'1 1.4
2018-Feb-12 10:30N 29°50' W 093°59'1 2.4
2018-Feb-12 09:58N 29°52' W 093°59'0 0.0
2018-Feb-12 09:28N 29°52' W 093°59'0 0.5
2018-Feb-12 08:58N 29°52' W 093°59'1 2.4
2018-Feb-12 08:30N 29°51' W 093°59'0 0.5
2018-Feb-12 07:59N 29°50' W 093°59'0 0.1
2018-Feb-12 07:29N 29°50' W 093°59'0 0.0
2018-Feb-12 06:59N 29°50' W 093°59'0 0.0
2018-Feb-12 06:29N 29°50' W 093°59'0 0.0
2018-Feb-12 05:59N 29°50' W 093°59'0 0.0
2018-Feb-12 05:29N 29°50' W 093°59'0 0.0
2018-Feb-12 04:59N 29°50' W 093°59'0 0.0
2018-Feb-12 04:29N 29°50' W 093°59'0 0.0
2018-Feb-12 03:59N 29°50' W 093°59'0 0.0
2018-Feb-12 03:29N 29°50' W 093°59'0 0.0
2018-Feb-12 02:59N 29°50' W 093°59'0 0.0
2018-Feb-12 02:29N 29°50' W 093°59'0 0.0
2018-Feb-12 01:59N 29°50' W 093°59'0 0.0
2018-Feb-12 01:29N 29°50' W 093°59'0 0.0
2018-Feb-12 00:59N 29°50' W 093°59'0 0.0
2018-Feb-12 00:29N 29°50' W 093°59'0 0.0
2018-Feb-11 23:56N 29°50' W 093°59'0 0.0
2018-Feb-11 23:29N 29°50' W 093°59'0 0.0
2018-Feb-11 22:59N 29°50' W 093°59'0 0.0
2018-Feb-11 22:29N 29°50' W 093°59'0 0.0
2018-Feb-11 21:59N 29°50' W 093°59'0 0.0
2018-Feb-11 21:29N 29°50' W 093°59'0 0.0
2018-Feb-11 20:59N 29°50' W 093°59'0 0.0
2018-Feb-11 20:23N 29°50' W 093°59'0 0.0
2018-Feb-11 19:59N 29°50' W 093°59'0 0.0
2018-Feb-11 19:26N 29°50' W 093°59'0 0.0
2018-Feb-11 18:59N 29°50' W 093°59'0 0.0
2018-Feb-11 18:29N 29°50' W 093°59'0 0.0
2018-Feb-11 17:59N 29°50' W 093°59'0 0.0
2018-Feb-11 17:29N 29°50' W 093°59'0 0.0
2018-Feb-11 16:56N 29°50' W 093°59'0 0.0
2018-Feb-11 16:29N 29°50' W 093°59'0 0.0
2018-Feb-11 15:59N 29°50' W 093°59'0 0.0
2018-Feb-11 15:29N 29°50' W 093°59'0 0.0
2018-Feb-11 14:59N 29°50' W 093°59'0 0.0
2018-Feb-11 14:29N 29°50' W 093°59'0 0.0
2018-Feb-11 13:59N 29°50' W 093°59'0 0.0
2018-Feb-11 13:29N 29°50' W 093°59'0 0.0
2018-Feb-11 12:59N 29°50' W 093°59'0 0.0
2018-Feb-11 12:30N 29°50' W 093°59'0 0.0
2018-Feb-11 12:00N 29°50' W 093°59'0 0.0
2018-Feb-11 11:30N 29°50' W 093°59'0 0.0
2018-Feb-11 11:00N 29°50' W 093°59'0 0.0
2018-Feb-11 10:30N 29°50' W 093°59'0 0.0
2018-Feb-11 10:00N 29°50' W 093°59'0 0.0
2018-Feb-11 09:30N 29°50' W 093°59'0 0.0
2018-Feb-11 09:00N 29°50' W 093°59'0 0.0
2018-Feb-11 08:30N 29°50' W 093°59'0 0.0
2018-Feb-11 08:00N 29°50' W 093°59'0 0.0
2018-Feb-11 07:27N 29°50' W 093°59'0 0.0
2018-Feb-11 06:48N 29°50' W 093°59'0 0.0
2018-Feb-11 06:30N 29°50' W 093°59'0 0.0
2018-Feb-11 06:00N 29°50' W 093°59'0 0.0
2018-Feb-11 05:30N 29°50' W 093°59'0 0.0
2018-Feb-11 05:00N 29°50' W 093°59'0 0.0
2018-Feb-11 04:30N 29°50' W 093°59'0 0.0
2018-Feb-11 03:51N 29°50' W 093°59'0 0.2
2018-Feb-11 03:30N 29°50' W 093°59'1 2.4
2018-Feb-11 02:56N 29°49' W 093°59'1 2.9
2018-Feb-11 02:30N 29°49' W 093°58'3 5.7
2018-Feb-11 02:00N 29°52' W 093°56'3 6.8
2018-Feb-11 01:30N 29°54' W 093°54'3 6.7
2018-Feb-11 01:00N 29°57' W 093°52'3 4.8
2018-Feb-11 00:29N 29°59' W 093°49'3 5.9
2018-Feb-11 00:00N 30°00' W 093°46'2 4.8
2018-Feb-10 23:30N 30°02' W 093°44'2 4.0
2018-Feb-10 23:00N 30°03' W 093°43'2 4.4
2018-Feb-10 22:29N 30°04' W 093°40'2 4.5
2018-Feb-10 21:59N 30°04' W 093°38'2 4.2
2018-Feb-10 21:29N 30°04' W 093°35'2 3.3
2018-Feb-10 21:00N 30°04' W 093°33'2 4.3
2018-Feb-10 20:30N 30°04' W 093°31'2 4.4
2018-Feb-10 20:00N 30°04' W 093°28'2 4.3
2018-Feb-10 19:30N 30°04' W 093°26'2 3.4
2018-Feb-10 19:00N 30°04' W 093°24'2 4.1
2018-Feb-10 18:30N 30°04' W 093°21'2 3.4
2018-Feb-10 18:00N 30°05' W 093°20'1 1.8
2018-Feb-10 17:30N 30°06' W 093°19'0 0.7
2018-Feb-10 17:00N 30°06' W 093°19'1 2.1
2018-Feb-10 16:31N 30°07' W 093°20'2 3.5
2018-Feb-10 16:00N 30°08' W 093°20'0 0.1
2018-Feb-10 15:29N 30°08' W 093°20'0 0.0
2018-Feb-10 15:00N 30°08' W 093°20'0 0.0
2018-Feb-10 14:29N 30°08' W 093°20'0 0.0
2018-Feb-10 13:59N 30°08' W 093°20'0 0.0
2018-Feb-10 13:29N 30°08' W 093°20'0 0.0
2018-Feb-10 12:59N 30°08' W 093°20'0 0.0
2018-Feb-10 12:29N 30°08' W 093°20'0 0.0
2018-Feb-10 11:59N 30°08' W 093°20'0 0.0
2018-Feb-10 11:29N 30°08' W 093°20'0 0.0
2018-Feb-10 10:59N 30°08' W 093°20'0 0.0
2018-Feb-10 10:29N 30°08' W 093°20'0 0.0
2018-Feb-10 09:59N 30°08' W 093°20'0 0.0
2018-Feb-10 09:29N 30°08' W 093°20'0 0.0
2018-Feb-10 08:59N 30°08' W 093°20'0 0.0
2018-Feb-10 08:29N 30°08' W 093°20'0 0.1
2018-Feb-10 08:00N 30°08' W 093°20'0 0.2
2018-Feb-10 07:30N 30°09' W 093°20'0 0.0
2018-Feb-10 07:00N 30°09' W 093°20'  

Dump ship's entire track history